Friendship, Indiana
Current Conditions -  °F | °C
As of 11:52 AM on Friday 28 Nov 2014 (Local Time) from KCVG Reporting Station
Overcast Overcast  
Wind Chill: 22°   Ceiling: 7000
Heat Index: 31°   Visibility: 10mi
Dew Point: 15°   Wind: 12mph
Humidity: 52%   Direction: 190°S
Pressure: 30.32"   Gusts: NA
Location:  38.97°N, 85.15°W
Report Text: KCVG 281652Z 19010KT 10SM OVC070 M01/M09 A3032 RMK AO2 SLP276 T10061094
Loading
Personal Weather Stations






























Interactive Weather Map New forecast layout! Learn more

10-Day Weather Forecast

Advertisements
Track Severe Weather on mobile